sensor_id;sensor_type;location;lat;lon;timestamp;pressure;altitude;pressure_sealevel;temperature;humidity
9822;BME280;4950;46.042;14.472;2023-07-31T00:01:02;97893.47;;;22.30;78.30
9822;BME280;4950;46.042;14.472;2023-07-31T00:03:29;97896.38;;;22.28;78.07
9822;BME280;4950;46.042;14.472;2023-07-31T00:05:55;97885.78;;;22.28;78.05
9822;BME280;4950;46.042;14.472;2023-07-31T00:08:23;97894.53;;;22.28;78.52
9822;BME280;4950;46.042;14.472;2023-07-31T00:10:51;97895.88;;;22.31;78.07
9822;BME280;4950;46.042;14.472;2023-07-31T00:13:18;97892.69;;;22.29;78.19
9822;BME280;4950;46.042;14.472;2023-07-31T00:15:44;97891.63;;;22.30;78.14
9822;BME280;4950;46.042;14.472;2023-07-31T00:18:11;97883.19;;;22.33;77.63
9822;BME280;4950;46.042;14.472;2023-07-31T00:20:37;97872.63;;;22.33;77.46
9822;BME280;4950;46.042;14.472;2023-07-31T00:23:04;97856.19;;;22.31;78.28
9822;BME280;4950;46.042;14.472;2023-07-31T00:25:32;97855.56;;;22.24;78.18
9822;BME280;4950;46.042;14.472;2023-07-31T00:27:59;97852.22;;;22.28;77.90
9822;BME280;4950;46.042;14.472;2023-07-31T00:30:25;97856.44;;;22.30;78.09
9822;BME280;4950;46.042;14.472;2023-07-31T00:32:52;97845.50;;;22.21;77.91
9822;BME280;4950;46.042;14.472;2023-07-31T00:35:19;97846.50;;;22.15;78.97
9822;BME280;4950;46.042;14.472;2023-07-31T00:37:45;97848.03;;;22.11;80.04
9822;BME280;4950;46.042;14.472;2023-07-31T00:40:12;97855.22;;;22.15;79.63
9822;BME280;4950;46.042;14.472;2023-07-31T00:42:40;97860.47;;;22.10;79.70
9822;BME280;4950;46.042;14.472;2023-07-31T00:45:07;97867.13;;;22.13;79.83
9822;BME280;4950;46.042;14.472;2023-07-31T00:47:34;97870.72;;;22.06;79.50
9822;BME280;4950;46.042;14.472;2023-07-31T00:50:01;97867.28;;;22.06;80.07
9822;BME280;4950;46.042;14.472;2023-07-31T00:52:27;97871.28;;;22.08;80.13
9822;BME280;4950;46.042;14.472;2023-07-31T00:54:54;97867.13;;;22.13;79.60
9822;BME280;4950;46.042;14.472;2023-07-31T00:57:20;97876.06;;;22.12;79.28
9822;BME280;4950;46.042;14.472;2023-07-31T00:59:48;97872.66;;;22.11;79.11
9822;BME280;4950;46.042;14.472;2023-07-31T01:02:15;97876.84;;;22.07;79.38
9822;BME280;4950;46.042;14.472;2023-07-31T01:04:42;97871.72;;;22.00;79.29
9822;BME280;4950;46.042;14.472;2023-07-31T01:07:14;97870.63;;;21.96;79.43
9822;BME280;4950;46.042;14.472;2023-07-31T01:09:52;97872.66;;;21.89;80.12
9822;BME280;4950;46.042;14.472;2023-07-31T01:12:23;97880.59;;;21.89;79.88
9822;BME280;4950;46.042;14.472;2023-07-31T01:15:02;97874.25;;;21.90;79.65
9822;BME280;4950;46.042;14.472;2023-07-31T01:17:29;97871.88;;;21.88;79.73
9822;BME280;4950;46.042;14.472;2023-07-31T01:19:59;97867.13;;;21.91;79.67
9822;BME280;4950;46.042;14.472;2023-07-31T01:25:23;97855.00;;;21.95;79.24
9822;BME280;4950;46.042;14.472;2023-07-31T01:27:59;97863.13;;;21.88;79.73
9822;BME280;4950;46.042;14.472;2023-07-31T01:30:32;97858.41;;;21.90;79.31
9822;BME280;4950;46.042;14.472;2023-07-31T01:33:01;97854.66;;;21.86;79.47
9822;BME280;4950;46.042;14.472;2023-07-31T01:35:32;97852.03;;;21.86;79.62
9822;BME280;4950;46.042;14.472;2023-07-31T01:37:59;97861.50;;;21.82;79.95
9822;BME280;4950;46.042;14.472;2023-07-31T01:40:25;97866.47;;;21.78;79.52
9822;BME280;4950;46.042;14.472;2023-07-31T01:42:52;97872.00;;;21.77;80.36
9822;BME280;4950;46.042;14.472;2023-07-31T01:45:20;97869.59;;;21.75;80.08
9822;BME280;4950;46.042;14.472;2023-07-31T01:47:47;97871.94;;;21.72;79.96
9822;BME280;4950;46.042;14.472;2023-07-31T01:50:13;97880.44;;;21.74;79.70
9822;BME280;4950;46.042;14.472;2023-07-31T01:52:40;97886.69;;;21.67;79.85
9822;BME280;4950;46.042;14.472;2023-07-31T01:55:07;97884.22;;;21.61;80.37
9822;BME280;4950;46.042;14.472;2023-07-31T01:57:34;97884.47;;;21.59;80.73
9822;BME280;4950;46.042;14.472;2023-07-31T02:00:00;97880.47;;;21.57;80.89
9822;BME280;4950;46.042;14.472;2023-07-31T02:02:28;97881.28;;;21.57;81.23
9822;BME280;4950;46.042;14.472;2023-07-31T02:04:55;97876.19;;;21.51;81.65
9822;BME280;4950;46.042;14.472;2023-07-31T02:07:22;97888.34;;;21.52;81.79
9822;BME280;4950;46.042;14.472;2023-07-31T02:09:48;97893.31;;;21.48;82.34
9822;BME280;4950;46.042;14.472;2023-07-31T02:12:15;97891.72;;;21.47;82.05
9822;BME280;4950;46.042;14.472;2023-07-31T02:14:42;97897.31;;;21.51;82.51
9822;BME280;4950;46.042;14.472;2023-07-31T02:17:09;97901.50;;;21.46;82.68
9822;BME280;4950;46.042;14.472;2023-07-31T02:19:37;97901.97;;;21.43;83.20
9822;BME280;4950;46.042;14.472;2023-07-31T02:22:04;97911.72;;;21.43;82.92
9822;BME280;4950;46.042;14.472;2023-07-31T02:24:30;97914.34;;;21.43;83.55
9822;BME280;4950;46.042;14.472;2023-07-31T02:26:57;97918.13;;;21.47;83.98
9822;BME280;4950;46.042;14.472;2023-07-31T02:29:24;97915.16;;;21.43;83.67
9822;BME280;4950;46.042;14.472;2023-07-31T02:31:51;97922.06;;;21.44;84.01
9822;BME280;4950;46.042;14.472;2023-07-31T02:34:17;97920.66;;;21.42;84.50
9822;BME280;4950;46.042;14.472;2023-07-31T02:36:45;97919.09;;;21.41;84.03
9822;BME280;4950;46.042;14.472;2023-07-31T02:39:12;97919.88;;;21.41;84.18
9822;BME280;4950;46.042;14.472;2023-07-31T02:41:38;97921.97;;;21.39;84.06
9822;BME280;4950;46.042;14.472;2023-07-31T02:44:05;97915.56;;;21.35;84.12
9822;BME280;4950;46.042;14.472;2023-07-31T02:46:31;97916.13;;;21.37;84.44
9822;BME280;4950;46.042;14.472;2023-07-31T02:48:58;97912.19;;;21.40;84.10
9822;BME280;4950;46.042;14.472;2023-07-31T02:51:25;97912.28;;;21.45;83.60
9822;BME280;4950;46.042;14.472;2023-07-31T02:53:53;97915.38;;;21.42;83.75
9822;BME280;4950;46.042;14.472;2023-07-31T02:56:19;97920.09;;;21.40;83.75
9822;BME280;4950;46.042;14.472;2023-07-31T02:58:46;97922.28;;;21.43;83.31
9822;BME280;4950;46.042;14.472;2023-07-31T03:01:12;97926.19;;;21.40;83.05
9822;BME280;4950;46.042;14.472;2023-07-31T03:03:41;97919.09;;;21.41;83.37
9822;BME280;4950;46.042;14.472;2023-07-31T03:06:07;97926.38;;;21.34;83.34
9822;BME280;4950;46.042;14.472;2023-07-31T03:08:34;97929.47;;;21.30;83.15
9822;BME280;4950;46.042;14.472;2023-07-31T03:11:02;97921.75;;;21.24;83.12
9822;BME280;4950;46.042;14.472;2023-07-31T03:13:29;97920.84;;;21.18;83.48
9822;BME280;4950;46.042;14.472;2023-07-31T03:15:55;97915.75;;;21.12;83.77
9822;BME280;4950;46.042;14.472;2023-07-31T03:18:22;97925.59;;;21.16;83.61
9822;BME280;4950;46.042;14.472;2023-07-31T03:20:48;97922.22;;;21.21;83.41
9822;BME280;4950;46.042;14.472;2023-07-31T03:23:15;97927.75;;;21.19;83.29
9822;BME280;4950;46.042;14.472;2023-07-31T03:25:55;97913.66;;;21.14;83.66
9822;BME280;4950;46.042;14.472;2023-07-31T03:28:23;97915.44;;;21.08;83.42
9822;BME280;4950;46.042;14.472;2023-07-31T03:30:50;97910.63;;;21.05;84.04
9822;BME280;4950;46.042;14.472;2023-07-31T03:33:17;97912.47;;;21.04;83.92
9822;BME280;4950;46.042;14.472;2023-07-31T03:35:43;97908.25;;;21.03;83.61
9822;BME280;4950;46.042;14.472;2023-07-31T03:38:10;97904.00;;;21.02;83.82
9822;BME280;4950;46.042;14.472;2023-07-31T03:40:37;97904.00;;;21.02;84.05
9822;BME280;4950;46.042;14.472;2023-07-31T03:43:03;97898.94;;;21.01;84.68
9822;BME280;4950;46.042;14.472;2023-07-31T03:45:31;97904.16;;;20.96;84.35
9822;BME280;4950;46.042;14.472;2023-07-31T03:47:58;97910.47;;;20.95;84.87
9822;BME280;4950;46.042;14.472;2023-07-31T03:50:25;97909.59;;;20.89;85.40
9822;BME280;4950;46.042;14.472;2023-07-31T03:52:52;97912.00;;;20.90;85.27
9822;BME280;4950;46.042;14.472;2023-07-31T03:55:18;97909.91;;;20.93;85.66
9822;BME280;4950;46.042;14.472;2023-07-31T03:57:47;97922.56;;;20.90;85.39
9822;BME280;4950;46.042;14.472;2023-07-31T04:00:14;97913.97;;;20.83;85.76
9822;BME280;4950;46.042;14.472;2023-07-31T04:02:42;97904.63;;;20.76;86.47
9822;BME280;4950;46.042;14.472;2023-07-31T04:05:08;97909.44;;;20.79;86.24
9822;BME280;4950;46.042;14.472;2023-07-31T04:07:36;97912.31;;;20.77;86.33
9822;BME280;4950;46.042;14.472;2023-07-31T04:10:03;97912.97;;;20.84;86.22
9822;BME280;4950;46.042;14.472;2023-07-31T04:12:30;97917.19;;;20.85;85.52
9822;BME280;4950;46.042;14.472;2023-07-31T04:14:56;97916.63;;;20.83;85.69
9822;BME280;4950;46.042;14.472;2023-07-31T04:17:23;97922.31;;;20.92;85.77
9822;BME280;4950;46.042;14.472;2023-07-31T04:19:51;97921.44;;;20.86;85.47
9822;BME280;4950;46.042;14.472;2023-07-31T04:22:17;97931.75;;;20.88;85.72
9822;BME280;4950;46.042;14.472;2023-07-31T04:24:44;97925.53;;;20.94;84.90
9822;BME280;4950;46.042;14.472;2023-07-31T04:27:11;97927.38;;;20.94;84.61
9822;BME280;4950;46.042;14.472;2023-07-31T04:29:37;97925.91;;;20.86;85.48
9822;BME280;4950;46.042;14.472;2023-07-31T04:32:05;97935.25;;;20.77;85.73
9822;BME280;4950;46.042;14.472;2023-07-31T04:34:32;97938.13;;;20.75;86.41
9822;BME280;4950;46.042;14.472;2023-07-31T04:37:00;97930.13;;;20.70;86.60
9822;BME280;4950;46.042;14.472;2023-07-31T04:39:26;97924.06;;;20.69;86.32
9822;BME280;4950;46.042;14.472;2023-07-31T04:41:53;97934.59;;;20.69;86.48
9822;BME280;4950;46.042;14.472;2023-07-31T04:44:20;97931.28;;;20.74;86.00
9822;BME280;4950;46.042;14.472;2023-07-31T04:46:46;97927.34;;;20.77;85.38
9822;BME280;4950;46.042;14.472;2023-07-31T04:49:13;97934.31;;;20.83;84.93
9822;BME280;4950;46.042;14.472;2023-07-31T04:51:39;97926.16;;;20.84;84.53
9822;BME280;4950;46.042;14.472;2023-07-31T04:54:07;97931.91;;;20.81;84.38
9822;BME280;4950;46.042;14.472;2023-07-31T04:56:34;97927.13;;;20.78;84.79
9822;BME280;4950;46.042;14.472;2023-07-31T04:59:01;97929.19;;;20.76;85.31
9822;BME280;4950;46.042;14.472;2023-07-31T05:01:28;97932.06;;;20.75;85.00
9822;BME280;4950;46.042;14.472;2023-07-31T05:03:55;97925.50;;;20.77;85.27
9822;BME280;4950;46.042;14.472;2023-07-31T05:06:21;97923.34;;;20.74;85.12
9822;BME280;4950;46.042;14.472;2023-07-31T05:08:48;97926.69;;;20.69;85.45
9822;BME280;4950;46.042;14.472;2023-07-31T05:11:16;97928.44;;;20.64;85.30
9822;BME280;4950;46.042;14.472;2023-07-31T05:13:43;97927.53;;;20.58;85.95
9822;BME280;4950;46.042;14.472;2023-07-31T05:16:09;97934.06;;;20.56;85.69
9822;BME280;4950;46.042;14.472;2023-07-31T05:18:36;97932.22;;;20.56;85.81
9822;BME280;4950;46.042;14.472;2023-07-31T05:21:03;97941.75;;;20.57;86.06
9822;BME280;4950;46.042;14.472;2023-07-31T05:23:29;97934.44;;;20.59;85.58
9822;BME280;4950;46.042;14.472;2023-07-31T05:26:02;97949.31;;;20.65;85.23
9822;BME280;4950;46.042;14.472;2023-07-31T05:28:30;97952.28;;;20.69;85.21
9822;BME280;4950;46.042;14.472;2023-07-31T05:30:59;97952.38;;;20.74;85.58
9822;BME280;4950;46.042;14.472;2023-07-31T05:33:26;97946.84;;;20.76;85.00
9822;BME280;4950;46.042;14.472;2023-07-31T05:35:53;97956.03;;;20.73;84.86
9822;BME280;4950;46.042;14.472;2023-07-31T05:38:19;97956.84;;;20.74;84.87
9822;BME280;4950;46.042;14.472;2023-07-31T05:40:46;97948.69;;;20.75;84.53
9822;BME280;4950;46.042;14.472;2023-07-31T05:43:13;97951.31;;;20.75;85.14
9822;BME280;4950;46.042;14.472;2023-07-31T05:45:41;97951.81;;;20.72;85.05
9822;BME280;4950;46.042;14.472;2023-07-31T05:48:08;97949.19;;;20.72;85.17
9822;BME280;4950;46.042;14.472;2023-07-31T05:50:35;97950.53;;;20.75;84.92
9822;BME280;4950;46.042;14.472;2023-07-31T05:53:02;97952.94;;;20.76;83.95
9822;BME280;4950;46.042;14.472;2023-07-31T05:55:29;97948.69;;;20.75;84.42
9822;BME280;4950;46.042;14.472;2023-07-31T05:57:56;97941.00;;;20.74;84.82
9822;BME280;4950;46.042;14.472;2023-07-31T06:00:22;97947.09;;;20.74;84.70
9822;BME280;4950;46.042;14.472;2023-07-31T06:02:50;97942.47;;;20.81;84.57
9822;BME280;4950;46.042;14.472;2023-07-31T06:05:17;97943.84;;;20.84;84.87
9822;BME280;4950;46.042;14.472;2023-07-31T06:07:44;97948.06;;;20.85;84.83
9822;BME280;4950;46.042;14.472;2023-07-31T06:10:10;97953.56;;;20.83;84.20
9822;BME280;4950;46.042;14.472;2023-07-31T06:12:37;97948.94;;;20.90;83.41
9822;BME280;4950;46.042;14.472;2023-07-31T06:15:04;97946.78;;;20.87;83.70
9822;BME280;4950;46.042;14.472;2023-07-31T06:17:31;97952.59;;;20.89;83.63
9822;BME280;4950;46.042;14.472;2023-07-31T06:19:59;97947.75;;;20.98;83.13
9822;BME280;4950;46.042;14.472;2023-07-31T06:22:26;97944.31;;;20.98;83.21
9822;BME280;4950;46.042;14.472;2023-07-31T06:24:53;97945.56;;;20.95;83.38
9822;BME280;4950;46.042;14.472;2023-07-31T06:27:19;97939.59;;;21.00;82.52
9822;BME280;4950;46.042;14.472;2023-07-31T06:29:46;97937.03;;;21.05;82.77
9822;BME280;4950;46.042;14.472;2023-07-31T06:32:13;97943.75;;;21.13;81.26
9822;BME280;4950;46.042;14.472;2023-07-31T06:34:39;97939.56;;;21.17;80.92
9822;BME280;4950;46.042;14.472;2023-07-31T06:37:07;97939.09;;;21.20;81.20
9822;BME280;4950;46.042;14.472;2023-07-31T06:39:34;97936.28;;;21.26;80.83
9822;BME280;4950;46.042;14.472;2023-07-31T06:42:01;97937.91;;;21.27;80.60
9822;BME280;4950;46.042;14.472;2023-07-31T06:44:27;97942.63;;;21.25;80.75
9822;BME280;4950;46.042;14.472;2023-07-31T06:46:54;97943.41;;;21.26;80.51
9822;BME280;4950;46.042;14.472;2023-07-31T06:49:21;97951.44;;;21.31;79.47
9822;BME280;4950;46.042;14.472;2023-07-31T06:51:47;97946.94;;;21.32;79.47
9822;BME280;4950;46.042;14.472;2023-07-31T06:54:15;97948.78;;;21.31;79.21
9822;BME280;4950;46.042;14.472;2023-07-31T06:56:42;97946.94;;;21.32;79.05
9822;BME280;4950;46.042;14.472;2023-07-31T06:59:08;97949.66;;;21.37;79.14
9822;BME280;4950;46.042;14.472;2023-07-31T07:01:35;97952.03;;;21.38;78.91
9822;BME280;4950;46.042;14.472;2023-07-31T07:04:02;97950.78;;;21.41;78.42
9822;BME280;4950;46.042;14.472;2023-07-31T07:06:28;97953.97;;;21.43;78.06
9822;BME280;4950;46.042;14.472;2023-07-31T07:08:55;97959.09;;;21.49;77.87
9822;BME280;4950;46.042;14.472;2023-07-31T07:11:23;97945.41;;;21.53;77.82
9822;BME280;4950;46.042;14.472;2023-07-31T07:13:49;97948.94;;;21.58;77.16
9822;BME280;4950;46.042;14.472;2023-07-31T07:16:16;97951.88;;;21.62;77.57
9822;BME280;4950;46.042;14.472;2023-07-31T07:18:43;97946.91;;;21.65;77.20
9822;BME280;4950;46.042;14.472;2023-07-31T07:21:09;97945.63;;;21.68;77.37
9822;BME280;4950;46.042;14.472;2023-07-31T07:23:40;97942.16;;;21.67;76.67
9822;BME280;4950;46.042;14.472;2023-07-31T07:26:07;97934.78;;;21.69;76.55
9822;BME280;4950;46.042;14.472;2023-07-31T07:28:37;97940.41;;;21.73;76.95
9822;BME280;4950;46.042;14.472;2023-07-31T07:31:04;97944.22;;;21.82;76.51
9822;BME280;4950;46.042;14.472;2023-07-31T07:33:31;97946.66;;;21.89;76.30
9822;BME280;4950;46.042;14.472;2023-07-31T07:36:00;97941.94;;;21.91;75.85
9822;BME280;4950;46.042;14.472;2023-07-31T07:38:26;97941.22;;;21.96;76.35
9822;BME280;4950;46.042;14.472;2023-07-31T07:40:53;97944.16;;;21.99;76.21
9822;BME280;4950;46.042;14.472;2023-07-31T07:43:20;97941.31;;;22.06;75.58
9822;BME280;4950;46.042;14.472;2023-07-31T07:45:48;97944.34;;;22.15;74.70
9822;BME280;4950;46.042;14.472;2023-07-31T07:48:14;97939.63;;;22.17;75.04
9822;BME280;4950;46.042;14.472;2023-07-31T07:50:42;97938.84;;;22.21;74.63
9822;BME280;4950;46.042;14.472;2023-07-31T07:53:09;97932.84;;;22.26;74.32
9822;BME280;4950;46.042;14.472;2023-07-31T07:55:35;97935.78;;;22.30;74.61
9822;BME280;4950;46.042;14.472;2023-07-31T07:58:02;97934.78;;;22.36;75.28
9822;BME280;4950;46.042;14.472;2023-07-31T08:00:29;97931.59;;;22.61;72.54
9822;BME280;4950;46.042;14.472;2023-07-31T08:02:57;97942.78;;;22.68;72.72
9822;BME280;4950;46.042;14.472;2023-07-31T08:05:24;97941.47;;;22.71;68.78
9822;BME280;4950;46.042;14.472;2023-07-31T08:07:50;97945.81;;;22.82;68.86
9822;BME280;4950;46.042;14.472;2023-07-31T08:10:17;97942.63;;;22.80;68.27
9822;BME280;4950;46.042;14.472;2023-07-31T08:12:43;97945.28;;;22.80;68.76
9822;BME280;4950;46.042;14.472;2023-07-31T08:15:10;97939.03;;;22.96;69.80
9822;BME280;4950;46.042;14.472;2023-07-31T08:17:36;97951.66;;;23.11;68.86
9822;BME280;4950;46.042;14.472;2023-07-31T08:20:06;97948.44;;;23.09;69.09
9822;BME280;4950;46.042;14.472;2023-07-31T08:22:33;97950.56;;;23.07;69.75
9822;BME280;4950;46.042;14.472;2023-07-31T08:24:59;97949.22;;;23.04;69.44
9822;BME280;4950;46.042;14.472;2023-07-31T08:27:26;97946.06;;;23.08;70.45
9822;BME280;4950;46.042;14.472;2023-07-31T08:29:53;97955.44;;;23.25;67.26
9822;BME280;4950;46.042;14.472;2023-07-31T08:32:19;97947.78;;;23.29;66.59
9822;BME280;4950;46.042;14.472;2023-07-31T08:34:46;97941.75;;;23.34;67.61
9822;BME280;4950;46.042;14.472;2023-07-31T08:37:14;97947.31;;;23.37;67.60
9822;BME280;4950;46.042;14.472;2023-07-31T08:39:40;97946.53;;;23.37;67.58
9822;BME280;4950;46.042;14.472;2023-07-31T08:42:07;97949.97;;;23.37;68.50
9822;BME280;4950;46.042;14.472;2023-07-31T08:44:34;97938.88;;;23.40;68.49
9822;BME280;4950;46.042;14.472;2023-07-31T08:47:02;97941.25;;;23.42;68.36
9822;BME280;4950;46.042;14.472;2023-07-31T08:49:29;97939.69;;;23.46;68.65
9822;BME280;4950;46.042;14.472;2023-07-31T08:51:56;97938.09;;;23.45;67.94
9822;BME280;4950;46.042;14.472;2023-07-31T08:54:24;97934.41;;;23.51;66.93
9822;BME280;4950;46.042;14.472;2023-07-31T08:56:55;97934.44;;;23.56;67.31
9822;BME280;4950;46.042;14.472;2023-07-31T08:59:23;97930.22;;;23.60;67.77
9822;BME280;4950;46.042;14.472;2023-07-31T09:01:53;97929.75;;;23.74;65.91
9822;BME280;4950;46.042;14.472;2023-07-31T09:04:22;97937.25;;;23.82;64.45
9822;BME280;4950;46.042;14.472;2023-07-31T09:06:49;97929.84;;;23.94;62.43
9822;BME280;4950;46.042;14.472;2023-07-31T09:09:18;97926.19;;;24.05;61.71
9822;BME280;4950;46.042;14.472;2023-07-31T09:11:47;97923.84;;;24.19;61.88
9822;BME280;4950;46.042;14.472;2023-07-31T09:14:16;97917.75;;;24.19;62.74
9822;BME280;4950;46.042;14.472;2023-07-31T09:16:53;97917.75;;;24.29;61.04
9822;BME280;4950;46.042;14.472;2023-07-31T09:19:27;97907.44;;;24.33;62.04
9822;BME280;4950;46.042;14.472;2023-07-31T09:21:54;97917.78;;;24.44;60.97
9822;BME280;4950;46.042;14.472;2023-07-31T09:24:27;97915.22;;;24.65;60.96
9822;BME280;4950;46.042;14.472;2023-07-31T09:26:58;97900.06;;;24.76;59.71
9822;BME280;4950;46.042;14.472;2023-07-31T09:29:25;97902.19;;;24.79;59.87
9822;BME280;4950;46.042;14.472;2023-07-31T09:31:53;97899.00;;;24.82;60.26
9822;BME280;4950;46.042;14.472;2023-07-31T09:34:21;97905.88;;;25.03;59.35
9822;BME280;4950;46.042;14.472;2023-07-31T09:36:54;97906.16;;;25.17;58.79
9822;BME280;4950;46.042;14.472;2023-07-31T09:39:20;97897.09;;;25.13;59.43
9822;BME280;4950;46.042;14.472;2023-07-31T09:41:54;97894.72;;;25.17;60.12
9822;BME280;4950;46.042;14.472;2023-07-31T09:44:37;97895.53;;;25.22;58.82
9822;BME280;4950;46.042;14.472;2023-07-31T09:47:05;97889.13;;;25.29;58.31
9822;BME280;4950;46.042;14.472;2023-07-31T09:49:31;97886.75;;;25.22;60.07
9822;BME280;4950;46.042;14.472;2023-07-31T09:51:58;97891.78;;;25.29;60.46
9822;BME280;4950;46.042;14.472;2023-07-31T09:54:25;97884.06;;;25.32;59.91
9822;BME280;4950;46.042;14.472;2023-07-31T09:56:52;97886.16;;;25.46;58.97
9822;BME280;4950;46.042;14.472;2023-07-31T09:59:22;97885.63;;;25.49;58.99
9822;BME280;4950;46.042;14.472;2023-07-31T10:01:49;97884.28;;;25.51;59.09
9822;BME280;4950;46.042;14.472;2023-07-31T10:04:17;97876.31;;;25.56;59.77
9822;BME280;4950;46.042;14.472;2023-07-31T10:06:49;97876.28;;;25.61;59.28
9822;BME280;4950;46.042;14.472;2023-07-31T10:09:18;97874.66;;;25.66;59.77
9822;BME280;4950;46.042;14.472;2023-07-31T10:11:46;97875.16;;;25.78;57.98
9822;BME280;4950;46.042;14.472;2023-07-31T10:14:16;97872.97;;;25.85;57.17
9822;BME280;4950;46.042;14.472;2023-07-31T10:16:46;97875.13;;;25.83;56.49
9822;BME280;4950;46.042;14.472;2023-07-31T10:19:13;97874.56;;;25.86;56.00
9822;BME280;4950;46.042;14.472;2023-07-31T10:21:42;97874.06;;;25.79;55.69
9822;BME280;4950;46.042;14.472;2023-07-31T10:24:08;97862.94;;;25.72;55.07
9822;BME280;4950;46.042;14.472;2023-07-31T10:26:37;97863.50;;;25.69;55.84
9822;BME280;4950;46.042;14.472;2023-07-31T10:29:05;97864.06;;;25.60;57.26
9822;BME280;4950;46.042;14.472;2023-07-31T10:31:34;97865.13;;;25.59;57.95
9822;BME280;4950;46.042;14.472;2023-07-31T10:34:03;97860.31;;;25.61;57.88
9822;BME280;4950;46.042;14.472;2023-07-31T10:36:30;97859.25;;;25.63;57.10
9822;BME280;4950;46.042;14.472;2023-07-31T10:38:56;97857.91;;;25.65;57.38
9822;BME280;4950;46.042;14.472;2023-07-31T10:41:28;97863.44;;;25.79;57.28
9822;BME280;4950;46.042;14.472;2023-07-31T10:43:57;97869.25;;;25.91;55.90
9822;BME280;4950;46.042;14.472;2023-07-31T10:46:24;97863.63;;;25.98;57.13
9822;BME280;4950;46.042;14.472;2023-07-31T10:48:57;97865.50;;;25.97;56.93
9822;BME280;4950;46.042;14.472;2023-07-31T10:51:32;97860.66;;;26.05;55.54
9822;BME280;4950;46.042;14.472;2023-07-31T10:54:10;97853.53;;;26.00;56.10
9822;BME280;4950;46.042;14.472;2023-07-31T10:56:37;97858.00;;;26.05;54.29
9822;BME280;4950;46.042;14.472;2023-07-31T10:59:04;97850.53;;;26.07;54.38
9822;BME280;4950;46.042;14.472;2023-07-31T11:01:52;97848.44;;;26.04;54.68
9822;BME280;4950;46.042;14.472;2023-07-31T11:04:22;97847.88;;;26.07;55.15
9822;BME280;4950;46.042;14.472;2023-07-31T11:06:57;97842.53;;;26.12;56.73
9822;BME280;4950;46.042;14.472;2023-07-31T11:09:27;97841.41;;;26.23;56.01
9822;BME280;4950;46.042;14.472;2023-07-31T11:11:55;97836.53;;;26.30;55.54
9822;BME280;4950;46.042;14.472;2023-07-31T11:14:22;97833.25;;;26.44;53.79
9822;BME280;4950;46.042;14.472;2023-07-31T11:16:49;97831.56;;;26.53;53.18
9822;BME280;4950;46.042;14.472;2023-07-31T11:19:21;97839.28;;;26.54;53.33
9822;BME280;4950;46.042;14.472;2023-07-31T11:21:48;97834.19;;;26.63;52.88
9822;BME280;4950;46.042;14.472;2023-07-31T11:24:16;97821.13;;;26.62;52.30
9822;BME280;4950;46.042;14.472;2023-07-31T11:26:49;97826.84;;;26.45;52.43
9822;BME280;4950;46.042;14.472;2023-07-31T11:29:15;97828.44;;;26.46;52.97
9822;BME280;4950;46.042;14.472;2023-07-31T11:31:42;97822.59;;;26.44;54.06
9822;BME280;4950;46.042;14.472;2023-07-31T11:34:09;97822.59;;;26.44;54.49
9822;BME280;4950;46.042;14.472;2023-07-31T11:36:36;97830.50;;;26.54;54.95
9822;BME280;4950;46.042;14.472;2023-07-31T11:39:05;97830.97;;;26.66;53.79
9822;BME280;4950;46.042;14.472;2023-07-31T11:41:34;97826.59;;;26.75;53.43
9822;BME280;4950;46.042;14.472;2023-07-31T11:44:00;97829.22;;;26.81;52.82
9822;BME280;4950;46.042;14.472;2023-07-31T11:46:28;97833.75;;;26.80;52.91
9822;BME280;4950;46.042;14.472;2023-07-31T11:48:59;97828.69;;;26.84;53.31
9822;BME280;4950;46.042;14.472;2023-07-31T11:51:27;97820.09;;;26.87;53.72
9822;BME280;4950;46.042;14.472;2023-07-31T11:53:56;97817.94;;;26.89;52.30
9822;BME280;4950;46.042;14.472;2023-07-31T11:56:24;97813.44;;;26.89;53.57
9822;BME280;4950;46.042;14.472;2023-07-31T11:58:55;97805.56;;;27.03;51.60
9822;BME280;4950;46.042;14.472;2023-07-31T12:01:23;97802.59;;;27.05;53.35
9822;BME280;4950;46.042;14.472;2023-07-31T12:03:50;97808.63;;;27.15;52.61
9822;BME280;4950;46.042;14.472;2023-07-31T12:06:18;97801.19;;;27.12;53.28
9822;BME280;4950;46.042;14.472;2023-07-31T12:08:46;97797.94;;;27.15;54.08
9822;BME280;4950;46.042;14.472;2023-07-31T12:11:13;97798.41;;;27.23;53.10
9822;BME280;4950;46.042;14.472;2023-07-31T12:13:40;97798.94;;;27.25;53.05
9822;BME280;4950;46.042;14.472;2023-07-31T12:16:08;97800.75;;;27.29;53.59
9822;BME280;4950;46.042;14.472;2023-07-31T12:18:37;97789.94;;;27.40;51.57
9822;BME280;4950;46.042;14.472;2023-07-31T12:21:05;97787.06;;;27.36;52.81
9822;BME280;4950;46.042;14.472;2023-07-31T12:23:33;97780.38;;;27.38;50.72
9822;BME280;4950;46.042;14.472;2023-07-31T12:26:00;97767.84;;;27.39;50.62
9822;BME280;4950;46.042;14.472;2023-07-31T12:28:28;97774.47;;;27.17;52.05
9822;BME280;4950;46.042;14.472;2023-07-31T12:30:57;97750.38;;;27.04;52.73
9822;BME280;4950;46.042;14.472;2023-07-31T12:33:31;97758.09;;;27.05;52.75
9822;BME280;4950;46.042;14.472;2023-07-31T12:36:00;97758.03;;;27.10;52.84
9822;BME280;4950;46.042;14.472;2023-07-31T12:38:26;97733.38;;;26.99;53.30
9822;BME280;4950;46.042;14.472;2023-07-31T12:40:53;97740.00;;;27.02;53.46
9822;BME280;4950;46.042;14.472;2023-07-31T12:43:20;97727.78;;;27.01;53.59
9822;BME280;4950;46.042;14.472;2023-07-31T12:45:46;97722.31;;;27.11;53.18
9822;BME280;4950;46.042;14.472;2023-07-31T12:48:13;97726.72;;;27.21;53.80
9822;BME280;4950;46.042;14.472;2023-07-31T12:50:41;97733.72;;;27.36;51.95
9822;BME280;4950;46.042;14.472;2023-07-31T12:53:08;97727.97;;;27.48;51.39
9822;BME280;4950;46.042;14.472;2023-07-31T12:55:35;97734.13;;;27.48;51.14
9822;BME280;4950;46.042;14.472;2023-07-31T12:58:02;97730.78;;;27.37;51.51
9822;BME280;4950;46.042;14.472;2023-07-31T13:00:29;97729.16;;;27.17;53.12
9822;BME280;4950;46.042;14.472;2023-07-31T13:02:56;97729.22;;;27.12;53.40
9822;BME280;4950;46.042;14.472;2023-07-31T13:05:22;97723.31;;;27.15;52.53
9822;BME280;4950;46.042;14.472;2023-07-31T13:07:50;97718.44;;;27.23;52.18
9822;BME280;4950;46.042;14.472;2023-07-31T13:10:17;97715.06;;;27.36;52.06
9822;BME280;4950;46.042;14.472;2023-07-31T13:12:44;97719.78;;;27.44;52.58
9822;BME280;4950;46.042;14.472;2023-07-31T13:15:10;97718.63;;;27.50;51.83